createdAt,value
2018-06-14T00:00:35.714Z,48.39
2018-06-14T00:01:35.739Z,48.30
2018-06-14T00:02:35.827Z,48.39
2018-06-14T00:03:35.808Z,48.69
2018-06-14T00:05:35.867Z,48.69
2018-06-14T00:06:36.107Z,48.88
2018-06-14T00:07:36.142Z,48.59
2018-06-14T00:08:36.322Z,48.49
2018-06-14T00:09:36.597Z,48.69
2018-06-14T00:10:36.029Z,48.79
2018-06-14T00:11:36.110Z,48.49
2018-06-14T00:12:36.093Z,48.69
2018-06-14T00:14:36.164Z,48.69
2018-06-14T00:15:36.301Z,48.30
2018-06-14T00:16:36.524Z,48.59
2018-06-14T00:17:36.337Z,48.39
2018-06-14T00:18:36.340Z,48.57
2018-06-14T00:19:36.365Z,48.88
2018-06-14T00:20:36.555Z,48.86
2018-06-14T00:21:36.428Z,48.57
2018-06-14T00:22:36.463Z,48.88
2018-06-14T00:23:36.741Z,48.88
2018-06-14T00:24:36.526Z,48.76
2018-06-14T00:25:36.557Z,48.86
2018-06-14T00:26:36.890Z,48.95
2018-06-14T00:27:36.620Z,48.86
2018-06-14T00:28:36.611Z,48.95
2018-06-14T00:29:36.635Z,49.05
2018-06-14T00:30:36.928Z,48.95
2018-06-14T00:31:36.697Z,48.86
2018-06-14T00:32:36.734Z,49.15
2018-06-14T00:33:36.807Z,49.63
2018-06-14T00:34:36.852Z,49.63
2018-06-14T00:35:36.826Z,49.44
2018-06-14T00:36:36.855Z,49.63
2018-06-14T00:37:37.237Z,49.44
2018-06-14T00:38:36.968Z,49.53
2018-06-14T00:39:37.002Z,49.34
2018-06-14T00:40:37.342Z,49.63
2018-06-14T00:41:37.067Z,49.53
2018-06-14T00:43:37.328Z,49.34
2018-06-14T00:44:37.171Z,49.24
2018-06-14T00:46:37.171Z,49.63
2018-06-14T00:47:37.208Z,49.63
2018-06-14T00:48:37.442Z,49.73
2018-06-14T00:49:37.335Z,49.92
2018-06-14T00:50:37.652Z,49.82
2018-06-14T00:51:37.539Z,49.82
2018-06-14T00:52:37.432Z,49.82
2018-06-14T00:53:37.464Z,49.63
2018-06-14T00:54:37.476Z,49.53
2018-06-14T00:55:37.610Z,49.63
2018-06-14T00:56:37.841Z,49.32
2018-06-14T00:57:38.325Z,49.73
2018-06-14T00:59:37.644Z,49.60
2018-06-14T01:00:38.173Z,49.73
2018-06-14T01:01:37.703Z,49.92
2018-06-14T01:03:38.011Z,50.31
2018-06-14T01:04:37.743Z,50.09
2018-06-14T01:05:37.820Z,50.11
2018-06-14T01:06:37.854Z,50.18
2018-06-14T01:07:38.088Z,50.09
2018-06-14T01:08:37.923Z,50.09
2018-06-14T01:09:37.955Z,50.09
2018-06-14T01:10:38.836Z,50.01
2018-06-14T01:11:38.025Z,50.11
2018-06-14T01:12:37.997Z,50.01
2018-06-14T01:13:38.077Z,50.21
2018-06-14T01:14:38.120Z,50.31
2018-06-14T01:15:38.092Z,50.40
2018-06-14T01:16:38.224Z,50.69
2018-06-14T01:17:39.071Z,50.67
2018-06-14T01:18:38.238Z,50.76
2018-06-14T01:20:38.295Z,50.76
2018-06-14T01:21:38.336Z,50.79
2018-06-14T01:23:38.399Z,50.86
2018-06-14T01:24:38.627Z,50.86
2018-06-14T01:25:38.459Z,50.86
2018-06-14T01:26:38.441Z,50.76
2018-06-14T01:27:38.471Z,50.86
2018-06-14T01:28:38.559Z,50.76
2018-06-14T01:30:38.921Z,50.86
2018-06-14T01:32:38.677Z,50.86
2018-06-14T01:33:38.910Z,50.79
2018-06-14T01:34:38.736Z,50.38
2018-06-14T01:36:39.256Z,50.57
2018-06-14T01:37:38.834Z,50.96
2018-06-14T01:38:38.865Z,50.86
2018-06-14T01:39:39.099Z,50.96
2018-06-14T01:40:39.133Z,50.86
2018-06-14T01:41:39.171Z,50.76
2018-06-14T01:43:39.475Z,50.76
2018-06-14T01:44:39.059Z,51.05
2018-06-14T01:45:39.084Z,50.96
2018-06-14T01:46:39.087Z,50.86
2018-06-14T01:47:39.102Z,50.47
2018-06-14T01:48:39.134Z,50.57
2018-06-14T01:49:39.663Z,50.96
2018-06-14T01:50:39.398Z,50.67
2018-06-14T01:52:39.263Z,50.86
2018-06-14T01:53:39.335Z,50.28
2018-06-14T01:54:39.580Z,50.86
2018-06-14T01:55:39.603Z,50.28
2018-06-14T01:56:39.384Z,50.38
2018-06-14T01:58:39.447Z,50.28
2018-06-14T01:59:39.528Z,50.67
2018-06-14T02:00:39.961Z,51.05
2018-06-14T02:01:39.940Z,50.86
2018-06-14T02:02:39.803Z,51.15
2018-06-14T02:03:39.650Z,51.15
2018-06-14T02:05:39.924Z,51.25
2018-06-14T02:06:39.768Z,51.25
2018-06-14T02:07:40.038Z,51.05
2018-06-14T02:08:39.813Z,51.15
2018-06-14T02:09:39.799Z,51.15
2018-06-14T02:11:39.854Z,51.15
2018-06-14T02:12:39.892Z,51.05
2018-06-14T02:13:40.214Z,51.34
2018-06-14T02:14:40.152Z,51.15
2018-06-14T02:16:40.215Z,51.05
2018-06-14T02:17:40.044Z,51.25
2018-06-14T02:18:40.081Z,51.05
2018-06-14T02:19:40.356Z,50.86
2018-06-14T02:20:40.137Z,50.96
2018-06-14T02:21:40.183Z,51.15
2018-06-14T02:22:40.199Z,51.03
2018-06-14T02:23:40.241Z,51.25
2018-06-14T02:24:40.279Z,51.03
2018-06-14T02:25:40.558Z,51.05
2018-06-14T02:26:40.325Z,51.15
2018-06-14T02:27:40.367Z,50.93
2018-06-14T02:28:40.389Z,51.22
2018-06-14T02:29:40.419Z,51.22
2018-06-14T02:30:40.454Z,51.32
2018-06-14T02:31:40.734Z,51.15
2018-06-14T02:32:40.515Z,51.05
2018-06-14T02:33:40.543Z,51.05
2018-06-14T02:34:40.580Z,51.61
2018-06-14T02:35:40.610Z,51.51
2018-06-14T02:36:40.641Z,51.51
2018-06-14T02:37:40.973Z,51.41
2018-06-14T02:38:40.704Z,51.41
2018-06-14T02:39:40.734Z,51.22
2018-06-14T02:40:40.765Z,51.41
2018-06-14T02:41:40.796Z,51.32
2018-06-14T02:42:40.828Z,51.03
2018-06-14T02:43:41.163Z,51.03
2018-06-14T02:44:40.899Z,51.25
2018-06-14T02:45:40.922Z,51.51
2018-06-14T02:46:40.958Z,51.61
2018-06-14T02:47:40.981Z,51.51
2018-06-14T02:48:41.019Z,51.80
2018-06-14T02:49:41.295Z,51.70
2018-06-14T02:50:41.077Z,51.41
2018-06-14T02:51:41.117Z,51.80
2018-06-14T02:52:41.147Z,51.41
2018-06-14T02:53:41.174Z,52.31
2018-06-14T02:54:41.201Z,51.80
2018-06-14T02:55:41.236Z,51.61
2018-06-14T02:56:41.514Z,51.61
2018-06-14T02:57:41.295Z,52.09
2018-06-14T02:58:41.331Z,51.99
2018-06-14T02:59:41.360Z,52.19
2018-06-14T03:00:41.394Z,52.09
2018-06-14T03:01:41.422Z,52.28
2018-06-14T03:02:41.497Z,52.21
2018-06-14T03:03:41.807Z,52.11
2018-06-14T03:04:41.518Z,52.37
2018-06-14T03:05:41.601Z,52.31
2018-06-14T03:07:41.607Z,52.09
2018-06-14T03:08:41.992Z,52.09
2018-06-14T03:09:41.679Z,51.89
2018-06-14T03:10:41.952Z,51.51
2018-06-14T03:11:41.752Z,52.28
2018-06-14T03:12:41.819Z,52.28
2018-06-14T03:13:41.798Z,52.21
2018-06-14T03:14:41.841Z,52.11
2018-06-14T03:15:41.860Z,52.09
2018-06-14T03:16:41.907Z,52.11
2018-06-14T03:17:42.169Z,52.19
2018-06-14T03:18:41.952Z,52.21
2018-06-14T03:19:41.988Z,51.73
2018-06-14T03:20:42.035Z,52.19
2018-06-14T03:21:42.055Z,52.28
2018-06-14T03:22:42.076Z,52.21
2018-06-14T03:23:42.108Z,52.21
2018-06-14T03:24:42.564Z,52.09
2018-06-14T03:25:42.172Z,52.28
2018-06-14T03:26:42.201Z,52.19
2018-06-14T03:27:42.232Z,52.21
2018-06-14T03:28:42.467Z,52.21
2018-06-14T03:29:42.344Z,52.01
2018-06-14T03:30:42.378Z,52.21
2018-06-14T03:31:42.662Z,52.19
2018-06-14T03:32:42.388Z,52.19
2018-06-14T03:33:42.419Z,52.01
2018-06-14T03:34:42.462Z,52.31
2018-06-14T03:35:42.539Z,52.21
2018-06-14T03:36:42.518Z,52.31
2018-06-14T03:37:42.545Z,52.21
2018-06-14T03:38:42.828Z,52.01
2018-06-14T03:39:42.607Z,51.53
2018-06-14T03:40:42.651Z,52.21
2018-06-14T03:41:42.716Z,52.40
2018-06-14T03:42:42.708Z,52.31
2018-06-14T03:43:42.733Z,52.21
2018-06-14T03:44:42.926Z,52.31
2018-06-14T03:45:43.247Z,52.11
2018-06-14T03:46:42.830Z,52.11
2018-06-14T03:47:42.858Z,52.21
2018-06-14T03:48:42.890Z,52.01
2018-06-14T03:49:42.922Z,52.21
2018-06-14T03:50:42.960Z,51.63
2018-06-14T03:51:42.985Z,52.31
2018-06-14T03:52:43.311Z,52.31
2018-06-14T03:53:43.061Z,52.01
2018-06-14T03:54:43.083Z,52.11
2018-06-14T03:56:43.142Z,52.11
2018-06-14T03:57:43.170Z,52.01
2018-06-14T03:58:43.200Z,52.01
2018-06-14T03:59:43.536Z,52.01
2018-06-14T04:00:43.618Z,52.01
2018-06-14T04:01:43.309Z,52.01
2018-06-14T04:02:43.326Z,52.21
2018-06-14T04:03:43.358Z,52.11
2018-06-14T04:04:43.390Z,52.21
2018-06-14T04:05:43.420Z,52.21
2018-06-14T04:06:43.756Z,51.99
2018-06-14T04:07:43.482Z,52.11
2018-06-14T04:08:43.518Z,52.21
2018-06-14T04:09:43.544Z,52.21
2018-06-14T04:11:43.611Z,52.21
2018-06-14T04:12:43.650Z,52.21
2018-06-14T04:13:43.673Z,52.11
2018-06-14T04:14:43.707Z,52.21
2018-06-14T04:15:43.736Z,52.11
2018-06-14T04:16:43.771Z,52.11
2018-06-14T04:17:44.048Z,52.21
2018-06-14T04:18:43.851Z,52.01
2018-06-14T04:19:43.861Z,52.31
2018-06-14T04:20:43.897Z,52.89
2018-06-14T04:21:43.925Z,52.98
2018-06-14T04:22:43.959Z,52.98
2018-06-14T04:23:44.487Z,53.08
2018-06-14T04:24:44.029Z,53.17
2018-06-14T04:25:44.048Z,53.17
2018-06-14T04:26:44.084Z,53.27
2018-06-14T04:27:44.114Z,53.08
2018-06-14T04:28:44.141Z,53.27
2018-06-14T04:29:44.484Z,53.27
2018-06-14T04:30:44.204Z,53.17
2018-06-14T04:31:44.245Z,53.17
2018-06-14T04:32:44.327Z,53.17
2018-06-14T04:33:44.297Z,53.37
2018-06-14T04:34:44.329Z,52.79
2018-06-14T04:35:44.610Z,52.40
2018-06-14T04:36:44.398Z,52.79
2018-06-14T04:37:44.425Z,52.79
2018-06-14T04:38:44.455Z,52.59
2018-06-14T04:39:44.540Z,53.17
2018-06-14T04:40:44.992Z,53.11
2018-06-14T04:41:44.810Z,52.91
2018-06-14T04:42:44.581Z,53.01
2018-06-14T04:43:44.623Z,52.69
2018-06-14T04:44:44.746Z,52.69
2018-06-14T04:45:44.697Z,52.81
2018-06-14T04:46:44.707Z,53.01
2018-06-14T04:47:44.738Z,52.91
2018-06-14T04:48:44.770Z,52.62
2018-06-14T04:49:44.803Z,52.62
2018-06-14T04:50:44.839Z,52.43
2018-06-14T04:51:44.872Z,52.53
2018-06-14T04:52:44.903Z,52.43
2018-06-14T04:53:44.930Z,52.62
2018-06-14T04:54:44.962Z,52.53
2018-06-14T04:55:44.996Z,52.53
2018-06-14T04:56:45.025Z,52.43
2018-06-14T04:57:45.059Z,52.53
2018-06-14T04:58:45.086Z,52.23
2018-06-14T04:59:45.425Z,52.33
2018-06-14T05:00:45.154Z,52.33
2018-06-14T05:01:45.197Z,52.33
2018-06-14T05:02:45.260Z,52.23
2018-06-14T05:03:45.251Z,52.23
2018-06-14T05:04:45.282Z,52.43
2018-06-14T05:05:45.564Z,52.43
2018-06-14T05:06:45.342Z,52.65
2018-06-14T05:07:45.444Z,52.23
2018-06-14T05:08:45.410Z,52.23
2018-06-14T05:09:45.435Z,52.23
2018-06-14T05:10:45.469Z,52.26
2018-06-14T05:11:45.803Z,52.23
2018-06-14T05:12:45.532Z,52.14
2018-06-14T05:13:45.637Z,52.36
2018-06-14T05:14:45.597Z,52.55
2018-06-14T05:15:45.635Z,52.45
2018-06-14T05:16:45.661Z,52.65
2018-06-14T05:17:46.006Z,52.65
2018-06-14T05:18:45.726Z,51.97
2018-06-14T05:19:45.755Z,51.87
2018-06-14T05:20:45.948Z,52.26
2018-06-14T05:21:45.819Z,52.26
2018-06-14T05:22:45.852Z,52.17
2018-06-14T05:23:46.186Z,52.26
2018-06-14T05:24:45.915Z,52.26
2018-06-14T05:25:45.996Z,52.26
2018-06-14T05:26:45.984Z,52.26
2018-06-14T05:27:46.214Z,52.36
2018-06-14T05:28:46.105Z,52.26
2018-06-14T05:29:46.080Z,52.26
2018-06-14T05:30:46.463Z,52.07
2018-06-14T05:31:46.138Z,52.26
2018-06-14T05:32:46.171Z,52.26
2018-06-14T05:33:46.252Z,52.17
2018-06-14T05:34:46.282Z,52.26
2018-06-14T05:35:46.267Z,52.17
2018-06-14T05:36:46.357Z,52.17
2018-06-14T05:37:46.585Z,52.26
2018-06-14T05:38:46.413Z,52.26
2018-06-14T05:39:46.555Z,52.26
2018-06-14T05:40:46.428Z,52.26
2018-06-14T05:41:46.460Z,52.17
2018-06-14T05:42:46.538Z,52.26
2018-06-14T05:43:46.575Z,51.97
2018-06-14T05:44:46.863Z,52.07
2018-06-14T05:45:46.644Z,52.26
2018-06-14T05:46:46.666Z,52.36
2018-06-14T05:47:46.725Z,51.87
2018-06-14T05:48:46.710Z,51.49
2018-06-14T05:49:46.975Z,51.39
2018-06-14T05:50:46.750Z,52.00
2018-06-14T05:51:47.136Z,51.59
2018-06-14T05:52:46.860Z,51.61
2018-06-14T05:53:46.845Z,51.42
2018-06-14T05:54:46.879Z,51.51
2018-06-14T05:55:46.965Z,51.81
2018-06-14T05:56:47.154Z,51.32
2018-06-14T05:57:47.530Z,51.81
2018-06-14T05:58:47.343Z,51.32
2018-06-14T05:59:47.092Z,51.42
2018-06-14T06:00:47.077Z,51.61
2018-06-14T06:01:47.659Z,51.61
2018-06-14T06:02:47.206Z,51.32
2018-06-14T06:03:47.427Z,51.71
2018-06-14T06:04:47.200Z,51.23
2018-06-14T06:05:47.283Z,51.42
2018-06-14T06:06:47.323Z,51.32
2018-06-14T06:07:47.551Z,51.32
2018-06-14T06:08:47.591Z,51.23
2018-06-14T06:09:47.363Z,51.32
2018-06-14T06:10:47.399Z,51.23
2018-06-14T06:11:47.684Z,51.23
2018-06-14T06:12:47.461Z,51.32
2018-06-14T06:13:47.699Z,51.32
2018-06-14T06:14:47.529Z,51.23
2018-06-14T06:16:47.649Z,50.84
2018-06-14T06:17:47.668Z,51.23
2018-06-14T06:18:48.260Z,50.74
2018-06-14T06:19:47.746Z,50.74
2018-06-14T06:20:47.723Z,50.93
2018-06-14T06:21:47.749Z,50.93
2018-06-14T06:22:47.866Z,50.55
2018-06-14T06:23:47.826Z,50.74
2018-06-14T06:24:48.113Z,51.13
2018-06-14T06:26:48.239Z,50.65
2018-06-14T06:27:47.994Z,50.96
2018-06-14T06:28:47.978Z,50.84
2018-06-14T06:29:48.008Z,50.76
2018-06-14T06:30:48.045Z,50.93
2018-06-14T06:31:48.076Z,51.15
2018-06-14T06:32:48.170Z,50.76
2018-06-14T06:33:48.443Z,50.96
2018-06-14T06:34:48.273Z,50.86
2018-06-14T06:35:48.204Z,50.76
2018-06-14T06:36:48.236Z,50.76
2018-06-14T06:37:48.273Z,50.76
2018-06-14T06:38:48.702Z,50.76
2018-06-14T06:39:48.333Z,50.38
2018-06-14T06:40:48.677Z,50.48
2018-06-14T06:41:48.447Z,50.48
2018-06-14T06:42:48.790Z,50.38
2018-06-14T06:43:48.515Z,50.38
2018-06-14T06:44:48.758Z,50.28
2018-06-14T06:45:48.589Z,50.28
2018-06-14T06:46:48.614Z,50.28
2018-06-14T06:47:49.198Z,49.99
2018-06-14T06:48:48.830Z,50.28
2018-06-14T06:49:48.662Z,50.28
2018-06-14T06:50:48.694Z,50.38
2018-06-14T06:51:48.775Z,50.28
2018-06-14T06:52:48.808Z,50.09
2018-06-14T06:53:49.289Z,49.99
2018-06-14T06:54:48.825Z,50.09
2018-06-14T06:55:48.912Z,49.99
2018-06-14T06:56:49.249Z,50.28
2018-06-14T06:57:48.969Z,50.28
2018-06-14T06:59:49.291Z,50.38
2018-06-14T07:00:49.592Z,50.38
2018-06-14T07:01:49.427Z,50.38
2018-06-14T07:02:49.135Z,50.28
2018-06-14T07:03:49.189Z,49.99
2018-06-14T07:04:49.356Z,49.80
2018-06-14T07:05:49.489Z,49.70
2018-06-14T07:06:49.235Z,49.80
2018-06-14T07:07:49.461Z,49.60
2018-06-14T07:08:49.280Z,49.80
2018-06-14T07:09:49.367Z,49.70
2018-06-14T07:10:49.397Z,49.60
2018-06-14T07:11:50.038Z,49.41
2018-06-14T07:12:49.411Z,49.44
2018-06-14T07:13:49.494Z,49.73
2018-06-14T07:14:49.681Z,49.80
2018-06-14T07:15:49.866Z,49.60
2018-06-14T07:17:49.881Z,49.80
2018-06-14T07:18:49.675Z,49.80
2018-06-14T07:19:49.712Z,49.80
2018-06-14T07:21:49.847Z,49.70
2018-06-14T07:22:49.787Z,50.18
2018-06-14T07:23:50.126Z,50.28
2018-06-14T07:24:49.854Z,50.50
2018-06-14T07:25:49.844Z,50.70
2018-06-14T07:26:49.879Z,51.35
2018-06-14T07:27:49.953Z,50.79
2018-06-14T07:28:49.987Z,51.28
2018-06-14T07:29:50.283Z,51.73
2018-06-14T07:30:50.003Z,51.76
2018-06-14T07:31:50.096Z,51.56
2018-06-14T07:32:50.118Z,52.24
2018-06-14T07:33:50.401Z,52.73
2018-06-14T07:34:50.182Z,52.34
2018-06-14T07:35:50.469Z,52.63
2018-06-14T07:36:50.561Z,52.92
2018-06-14T07:37:50.256Z,52.63
2018-06-14T07:38:50.353Z,53.31
2018-06-14T07:39:50.299Z,53.31
2018-06-14T07:40:50.394Z,53.21
2018-06-14T07:41:50.714Z,53.11
2018-06-14T07:42:50.445Z,53.11
2018-06-14T07:43:50.693Z,53.21
2018-06-14T07:44:50.641Z,53.41
2018-06-14T07:45:50.495Z,53.21
2018-06-14T07:46:50.790Z,53.59
2018-06-14T07:47:50.867Z,53.89
2018-06-14T07:48:50.613Z,53.59
2018-06-14T07:49:50.688Z,53.41
2018-06-14T07:50:51.020Z,53.59
2018-06-14T07:51:51.046Z,53.41
2018-06-14T07:52:50.733Z,53.41
2018-06-14T07:53:51.125Z,53.50
2018-06-14T07:55:50.916Z,53.41
2018-06-14T07:56:50.936Z,53.02
2018-06-14T07:57:50.904Z,53.11
2018-06-14T07:58:50.985Z,53.31
2018-06-14T08:02:51.388Z,53.21
2018-06-14T08:04:51.195Z,52.73
2018-06-14T08:05:51.410Z,52.82
2018-06-14T08:06:51.243Z,53.21
2018-06-14T08:07:51.269Z,52.73
2018-06-14T08:08:51.308Z,52.92
2018-06-14T08:09:51.538Z,52.92
2018-06-14T08:12:51.456Z,52.63
2018-06-14T08:15:51.787Z,52.46
2018-06-14T08:16:51.797Z,52.36
2018-06-14T08:17:51.607Z,52.63
2018-06-14T08:18:51.597Z,52.36
2018-06-14T08:19:51.628Z,52.53
2018-06-14T08:20:51.915Z,52.66
2018-06-14T08:21:51.745Z,52.46
2018-06-14T08:22:52.042Z,52.27
2018-06-14T08:23:51.808Z,52.17
2018-06-14T08:24:51.787Z,52.17
2018-06-14T08:25:51.893Z,52.34
2018-06-14T08:27:51.936Z,52.27
2018-06-14T08:28:52.272Z,52.17
2018-06-14T08:29:52.317Z,51.76
2018-06-14T08:30:52.039Z,51.50
2018-06-14T08:31:52.089Z,51.50
2018-06-14T08:32:52.055Z,51.40
2018-06-14T08:33:52.640Z,51.20
2018-06-14T08:34:52.120Z,51.30
2018-06-14T08:35:52.466Z,51.01
2018-06-14T08:36:52.691Z,51.50
2018-06-14T08:37:52.278Z,51.10
2018-06-14T08:38:52.305Z,50.82
2018-06-14T08:39:52.847Z,50.92
2018-06-14T08:40:52.324Z,50.92
2018-06-14T08:41:52.409Z,51.30
2018-06-14T08:42:52.637Z,51.59
2018-06-14T08:43:52.717Z,51.30
2018-06-14T08:44:52.544Z,50.72
2018-06-14T08:46:52.573Z,51.30
2018-06-14T08:48:52.684Z,51.20
2018-06-14T08:49:52.670Z,50.72
2018-06-14T08:50:52.938Z,50.72
2018-06-14T08:51:52.764Z,51.01
2018-06-14T08:52:52.785Z,50.92
2018-06-14T08:53:52.817Z,50.62
2018-06-14T08:54:53.356Z,50.82
2018-06-14T08:55:53.306Z,50.52
2018-06-14T08:58:53.222Z,50.33
2018-06-14T08:59:53.007Z,50.52
2018-06-14T09:01:53.981Z,50.16
2018-06-14T09:02:53.312Z,50.52
2018-06-14T09:03:53.294Z,50.33
2018-06-14T09:04:53.479Z,50.55
2018-06-14T09:05:53.408Z,50.14
2018-06-14T09:06:53.517Z,50.24
2018-06-14T09:07:53.277Z,50.35
2018-06-14T09:08:53.257Z,50.45
2018-06-14T09:09:53.299Z,50.16
2018-06-14T09:10:53.880Z,50.35
2018-06-14T09:11:53.667Z,50.35
2018-06-14T09:12:53.649Z,50.26
2018-06-14T09:13:53.492Z,50.45
2018-06-14T09:14:53.503Z,50.45
2018-06-14T09:16:54.008Z,50.35
2018-06-14T09:17:53.922Z,49.49
2018-06-14T09:19:53.944Z,49.97
2018-06-14T09:20:53.709Z,49.77
2018-06-14T09:21:53.945Z,50.07
2018-06-14T09:22:53.784Z,50.35
2018-06-14T09:23:54.019Z,49.87
2018-06-14T09:24:54.051Z,49.87
2018-06-14T09:25:54.085Z,49.97
2018-06-14T09:26:55.013Z,49.97
2018-06-14T09:27:53.955Z,50.26
2018-06-14T09:28:54.415Z,49.87
2018-06-14T09:29:54.051Z,49.49
2018-06-14T09:30:54.755Z,49.68
2018-06-14T09:32:54.569Z,49.68
2018-06-14T09:33:54.153Z,49.49
2018-06-14T09:34:54.182Z,49.49
2018-06-14T09:35:54.445Z,49.68
2018-06-14T09:36:54.250Z,49.77
2018-06-14T09:37:55.013Z,49.97
2018-06-14T09:38:54.530Z,49.77
2018-06-14T09:39:54.874Z,49.77
2018-06-14T09:40:54.419Z,49.58
2018-06-14T09:41:54.622Z,49.87
2018-06-14T09:42:54.829Z,49.77
2018-06-14T09:43:54.487Z,49.97
2018-06-14T09:44:54.829Z,49.77
2018-06-14T09:45:55.060Z,49.97
2018-06-14T09:46:54.612Z,49.77
2018-06-14T09:48:54.668Z,49.29
2018-06-14T09:50:54.980Z,49.58
2018-06-14T09:51:55.358Z,49.49
2018-06-14T09:52:54.790Z,49.68
2018-06-14T09:53:54.827Z,49.58
2018-06-14T09:56:55.239Z,49.77
2018-06-14T09:57:55.270Z,49.87
2018-06-14T09:58:54.996Z,49.00
2018-06-14T09:59:55.758Z,49.77
2018-06-14T10:01:55.666Z,48.90
2018-06-14T10:02:55.496Z,49.10
2018-06-14T10:04:55.657Z,49.10
2018-06-14T10:05:55.442Z,48.90
2018-06-14T10:06:55.467Z,49.00
2018-06-14T10:07:55.302Z,49.10
2018-06-14T10:09:55.333Z,49.10
2018-06-14T10:10:55.603Z,49.10
2018-06-14T10:11:55.685Z,48.90
2018-06-14T10:12:55.488Z,49.12
2018-06-14T10:13:55.550Z,49.10
2018-06-14T10:14:55.548Z,49.00
2018-06-14T10:15:55.780Z,49.00
2018-06-14T10:16:55.675Z,49.02
2018-06-14T10:18:56.438Z,49.02
2018-06-14T10:19:55.742Z,49.02
2018-06-14T10:20:55.947Z,49.22
2018-06-14T10:21:55.775Z,48.93
2018-06-14T10:23:55.870Z,48.93
2018-06-14T10:24:56.076Z,48.74
2018-06-14T10:25:56.163Z,48.83
2018-06-14T10:26:55.945Z,48.64
2018-06-14T10:27:55.991Z,48.64
2018-06-14T10:28:56.220Z,49.02
2018-06-14T10:30:56.391Z,48.83
2018-06-14T10:32:56.920Z,48.93
2018-06-14T10:35:56.414Z,48.83
2018-06-14T10:36:56.288Z,48.83
2018-06-14T10:37:56.637Z,48.74
2018-06-14T10:38:56.675Z,48.64
2018-06-14T10:39:56.556Z,48.74
2018-06-14T10:41:56.480Z,48.93
2018-06-14T10:42:56.503Z,48.44
2018-06-14T10:44:56.809Z,48.64
2018-06-14T10:45:56.595Z,48.83
2018-06-14T10:48:56.701Z,48.83
2018-06-14T10:49:57.133Z,48.83
2018-06-14T10:50:57.017Z,48.74
2018-06-14T10:53:56.874Z,48.83
2018-06-14T10:54:56.852Z,48.93
2018-06-14T10:55:56.973Z,48.74
2018-06-14T10:57:57.510Z,48.74
2018-06-14T10:59:57.081Z,49.02
2018-06-14T11:00:57.111Z,48.54
2018-06-14T11:02:57.390Z,48.64
2018-06-14T11:07:57.657Z,48.35
2018-06-14T11:09:57.723Z,48.35
2018-06-14T11:10:57.462Z,48.15
2018-06-14T11:12:57.532Z,48.15
2018-06-14T11:13:57.563Z,47.86
2018-06-14T11:14:57.847Z,47.96
2018-06-14T11:16:57.865Z,47.96
2018-06-14T11:17:57.700Z,47.98
2018-06-14T11:19:57.762Z,47.79
2018-06-14T11:20:57.809Z,47.98
2018-06-14T11:22:58.733Z,48.08
2018-06-14T11:25:57.974Z,48.08
2018-06-14T11:26:58.011Z,47.79
2018-06-14T11:27:58.001Z,47.50
2018-06-14T11:28:58.082Z,47.69
2018-06-14T11:29:59.035Z,47.69
2018-06-14T11:30:58.099Z,47.79
2018-06-14T11:31:58.492Z,47.69
2018-06-14T11:32:58.175Z,47.89
2018-06-14T11:34:58.591Z,47.60
2018-06-14T11:35:58.342Z,47.20
2018-06-14T11:36:58.570Z,47.69
2018-06-14T11:37:58.343Z,47.11
2018-06-14T11:38:58.430Z,47.40
2018-06-14T11:39:58.787Z,47.40
2018-06-14T11:40:58.550Z,47.30
2018-06-14T11:41:58.554Z,47.60
2018-06-14T11:42:58.519Z,47.40
2018-06-14T11:43:58.809Z,47.42
2018-06-14T11:44:58.839Z,47.50
2018-06-14T11:45:58.636Z,47.42
2018-06-14T11:46:58.659Z,47.33
2018-06-14T11:47:58.764Z,47.03
2018-06-14T11:48:58.866Z,47.03
2018-06-14T11:49:58.779Z,47.03
2018-06-14T11:50:59.102Z,46.94
2018-06-14T11:51:58.885Z,47.81
2018-06-14T11:52:58.877Z,46.75
2018-06-14T11:53:58.907Z,47.13
2018-06-14T11:54:59.005Z,47.72
2018-06-14T11:55:59.048Z,47.13
2018-06-14T11:56:59.377Z,47.52
2018-06-14T11:58:59.336Z,46.94
2018-06-14T12:00:59.508Z,47.13
2018-06-14T12:01:59.195Z,47.23
2018-06-14T12:02:59.276Z,47.42
2018-06-14T12:03:59.314Z,47.23
2018-06-14T12:04:59.502Z,47.03
2018-06-14T12:05:59.581Z,47.23
2018-06-14T12:06:59.372Z,47.13
2018-06-14T12:07:59.452Z,47.42
2018-06-14T12:08:59.696Z,47.42
2018-06-14T12:09:59.470Z,47.42
2018-06-14T12:10:59.691Z,47.33
2018-06-14T12:11:59.542Z,47.42
2018-06-14T12:12:59.876Z,47.52
2018-06-14T12:13:59.617Z,47.42
2018-06-14T12:14:59.651Z,47.33
2018-06-14T12:15:59.951Z,47.23
2018-06-14T12:17:59.811Z,47.62
2018-06-14T12:18:59.991Z,47.23
2018-06-14T12:20:00.080Z,47.42
2018-06-14T12:21:59.949Z,47.42
2018-06-14T12:22:59.932Z,47.33
2018-06-14T12:23:59.975Z,47.33
2018-06-14T12:25:00.003Z,47.33
2018-06-14T12:26:00.390Z,47.52
2018-06-14T12:27:00.127Z,47.33
2018-06-14T12:28:00.163Z,47.33
2018-06-14T12:29:00.149Z,47.42
2018-06-14T12:30:00.232Z,47.42
2018-06-14T12:31:00.269Z,47.13
2018-06-14T12:32:00.499Z,47.42
2018-06-14T12:33:00.360Z,47.33
2018-06-14T12:34:00.318Z,47.42
2018-06-14T12:35:00.424Z,47.13
2018-06-14T12:36:00.438Z,47.42
2018-06-14T12:37:00.486Z,47.42
2018-06-14T12:38:00.836Z,47.23
2018-06-14T12:39:00.498Z,46.84
2018-06-14T12:40:00.550Z,46.94
2018-06-14T12:41:00.614Z,46.84
2018-06-14T12:42:00.617Z,46.75
2018-06-14T12:44:00.925Z,47.13
2018-06-14T12:45:00.758Z,47.13
2018-06-14T12:46:00.803Z,46.84
2018-06-14T12:47:00.801Z,47.25
2018-06-14T12:48:00.837Z,46.86
2018-06-14T12:49:00.852Z,46.77
2018-06-14T12:50:01.643Z,46.77
2018-06-14T12:51:00.932Z,46.86
2018-06-14T12:52:00.961Z,46.86
2018-06-14T12:53:01.252Z,46.96
2018-06-14T12:54:01.311Z,46.77
2018-06-14T12:55:01.070Z,46.48
2018-06-14T12:56:01.352Z,46.58
2018-06-14T12:57:01.138Z,46.28
2018-06-14T12:58:01.180Z,46.28
2018-06-14T12:59:01.208Z,46.38
2018-06-14T13:00:01.244Z,46.48
2018-06-14T13:01:01.283Z,46.48
2018-06-14T13:02:01.571Z,46.09
2018-06-14T13:03:01.711Z,46.41
2018-06-14T13:04:01.403Z,46.31
2018-06-14T13:05:01.781Z,46.11
2018-06-14T13:06:01.472Z,46.31
2018-06-14T13:07:01.508Z,46.31
2018-06-14T13:08:01.833Z,46.31
2018-06-14T13:09:01.606Z,46.01
2018-06-14T13:10:01.666Z,46.11
2018-06-14T13:11:01.646Z,45.72
2018-06-14T13:12:01.742Z,46.41
2018-06-14T13:13:01.719Z,46.01
2018-06-14T13:14:02.007Z,45.72
2018-06-14T13:15:01.792Z,45.72
2018-06-14T13:16:01.826Z,46.01
2018-06-14T13:17:01.868Z,45.92
2018-06-14T13:18:01.896Z,45.82
2018-06-14T13:19:01.994Z,45.82
2018-06-14T13:20:02.654Z,46.01
2018-06-14T13:21:02.021Z,45.82
2018-06-14T13:22:02.125Z,45.82
2018-06-14T13:23:02.080Z,45.92
2018-06-14T13:24:02.135Z,45.82
2018-06-14T13:25:02.202Z,45.72
2018-06-14T13:26:02.445Z,45.92
2018-06-14T13:27:02.235Z,45.92
2018-06-14T13:28:02.263Z,46.01
2018-06-14T13:29:02.294Z,45.72
2018-06-14T13:30:02.344Z,45.82
2018-06-14T13:31:02.404Z,45.92
2018-06-14T13:32:02.704Z,45.72
2018-06-14T13:33:02.497Z,46.21
2018-06-14T13:34:02.482Z,45.72
2018-06-14T13:35:02.515Z,46.11
2018-06-14T13:36:02.631Z,45.82
2018-06-14T13:37:02.629Z,46.14
2018-06-14T13:38:02.975Z,46.11
2018-06-14T13:39:02.914Z,46.14
2018-06-14T13:40:02.706Z,46.21
2018-06-14T13:41:02.845Z,45.45
2018-06-14T13:42:02.771Z,45.65
2018-06-14T13:43:02.878Z,45.45
2018-06-14T13:44:02.891Z,45.45
2018-06-14T13:45:02.884Z,45.94
2018-06-14T13:46:03.289Z,46.04
2018-06-14T13:47:02.983Z,45.94
2018-06-14T13:48:03.024Z,45.36
2018-06-14T13:49:03.191Z,45.45
2018-06-14T13:50:03.145Z,45.26
2018-06-14T13:51:03.177Z,45.45
2018-06-14T13:52:03.138Z,45.45
2018-06-14T13:53:03.567Z,45.55
2018-06-14T13:54:03.231Z,45.45
2018-06-14T13:55:03.490Z,45.45
2018-06-14T13:56:03.286Z,45.14
2018-06-14T13:57:03.441Z,45.36
2018-06-14T13:58:03.666Z,45.94
2018-06-14T13:59:03.598Z,45.24
2018-06-14T14:00:03.932Z,45.55
2018-06-14T14:01:04.078Z,45.53
2018-06-14T14:04:03.663Z,45.82
2018-06-14T14:05:03.976Z,45.92
2018-06-14T14:06:03.646Z,45.92
2018-06-14T14:07:04.007Z,46.11
2018-06-14T14:08:03.726Z,46.11
2018-06-14T14:09:03.808Z,46.01
2018-06-14T14:10:03.808Z,46.11
2018-06-14T14:11:03.883Z,46.11
2018-06-14T14:12:03.870Z,46.01
2018-06-14T14:13:03.903Z,46.21
2018-06-14T14:14:04.189Z,46.41
2018-06-14T14:15:03.975Z,46.60
2018-06-14T14:16:04.017Z,46.01
2018-06-14T14:17:04.050Z,46.41